createdAt,value
2023-12-26T00:01:14.304Z,9.02
2023-12-26T00:03:47.666Z,8.93
2023-12-26T00:06:24.595Z,8.97
2023-12-26T00:08:59.458Z,8.98
2023-12-26T00:11:32.368Z,9.05
2023-12-26T00:14:08.027Z,9.00
2023-12-26T00:16:42.694Z,8.91
2023-12-26T00:19:15.491Z,8.87
2023-12-26T00:21:49.056Z,8.86
2023-12-26T00:24:23.765Z,8.77
2023-12-26T00:26:56.497Z,8.89
2023-12-26T00:29:28.521Z,8.87
2023-12-26T00:31:57.770Z,9.01
2023-12-26T00:34:29.358Z,9.02
2023-12-26T00:37:01.037Z,8.99
2023-12-26T00:39:36.123Z,8.99
2023-12-26T00:42:09.944Z,9.04
2023-12-26T00:44:44.476Z,9.03
2023-12-26T00:47:16.462Z,8.97
2023-12-26T00:50:33.743Z,8.96
2023-12-26T00:53:07.392Z,9.00
2023-12-26T00:55:42.400Z,8.99
2023-12-26T00:58:15.979Z,8.92
2023-12-26T01:00:48.552Z,8.92
2023-12-26T01:03:24.092Z,9.04
2023-12-26T01:05:56.372Z,8.96
2023-12-26T01:08:28.624Z,9.01
2023-12-26T01:11:02.999Z,9.10
2023-12-26T01:13:36.354Z,9.11
2023-12-26T01:16:09.555Z,9.15
2023-12-26T01:18:41.542Z,9.09
2023-12-26T01:21:13.945Z,9.07
2023-12-26T01:23:45.747Z,9.04
2023-12-26T01:26:19.834Z,9.04
2023-12-26T01:28:51.549Z,9.01
2023-12-26T01:31:23.205Z,9.05
2023-12-26T01:33:56.171Z,8.99
2023-12-26T01:36:28.058Z,8.89
2023-12-26T01:39:00.880Z,9.00
2023-12-26T01:41:34.934Z,9.07
2023-12-26T01:44:06.642Z,9.10
2023-12-26T01:46:40.364Z,9.03
2023-12-26T01:49:13.198Z,9.16
2023-12-26T01:51:46.665Z,9.20
2023-12-26T01:54:19.976Z,9.24
2023-12-26T01:56:54.328Z,9.13
2023-12-26T01:59:28.438Z,9.23
2023-12-26T02:02:01.666Z,9.28
2023-12-26T02:04:35.198Z,9.33
2023-12-26T02:07:09.648Z,9.29
2023-12-26T02:09:46.281Z,9.19
2023-12-26T02:12:20.902Z,9.12
2023-12-26T02:14:54.072Z,9.31
2023-12-26T02:17:28.593Z,9.23
2023-12-26T02:20:01.261Z,9.36
2023-12-26T02:22:33.454Z,9.38
2023-12-26T02:25:10.560Z,9.43
2023-12-26T02:27:43.418Z,9.41
2023-12-26T02:30:16.908Z,9.47
2023-12-26T02:32:51.446Z,9.48
2023-12-26T02:35:24.737Z,9.55
2023-12-26T02:37:56.946Z,9.54
2023-12-26T02:40:34.601Z,9.61
2023-12-26T02:43:06.878Z,9.20
2023-12-26T02:45:39.734Z,9.18
2023-12-26T02:48:11.951Z,9.48
2023-12-26T02:50:44.461Z,9.35
2023-12-26T02:53:16.537Z,9.49
2023-12-26T02:55:54.865Z,9.53
2023-12-26T02:58:26.882Z,9.57
2023-12-26T03:00:59.256Z,9.27
2023-12-26T03:03:31.393Z,8.99
2023-12-26T03:06:04.258Z,9.10
2023-12-26T03:08:36.412Z,8.96
2023-12-26T03:11:11.890Z,8.97
2023-12-26T03:13:43.921Z,8.93
2023-12-26T03:16:16.396Z,9.23
2023-12-26T03:18:48.486Z,8.88
2023-12-26T03:21:22.143Z,8.82
2023-12-26T03:23:55.402Z,8.76
2023-12-26T03:26:30.207Z,8.81
2023-12-26T03:29:02.036Z,8.82
2023-12-26T03:31:34.384Z,8.75
2023-12-26T03:34:06.190Z,8.78
2023-12-26T03:36:38.421Z,8.71
2023-12-26T03:39:10.616Z,8.66
2023-12-26T03:41:45.792Z,8.63
2023-12-26T03:44:17.385Z,8.64
2023-12-26T03:46:49.324Z,8.72
2023-12-26T03:49:21.068Z,8.61
2023-12-26T03:51:53.615Z,8.63
2023-12-26T03:54:25.225Z,8.72
2023-12-26T03:56:59.939Z,8.77
2023-12-26T03:59:31.786Z,8.57
2023-12-26T04:02:03.852Z,8.57
2023-12-26T04:04:35.625Z,8.83
2023-12-26T04:07:08.027Z,8.69
2023-12-26T04:09:39.759Z,8.78
2023-12-26T04:12:14.630Z,8.77
2023-12-26T04:14:46.828Z,8.74
2023-12-26T04:17:21.130Z,8.84
2023-12-26T04:19:59.448Z,8.65
2023-12-26T04:22:31.632Z,8.71
2023-12-26T04:25:03.375Z,8.80
2023-12-26T04:27:38.072Z,8.81
2023-12-26T04:30:12.159Z,8.77
2023-12-26T04:32:44.226Z,8.83
2023-12-26T04:35:16.141Z,8.88
2023-12-26T04:37:48.184Z,8.86
2023-12-26T04:40:20.447Z,8.87
2023-12-26T04:42:55.331Z,8.96
2023-12-26T04:45:27.482Z,9.14
2023-12-26T04:47:59.715Z,9.09
2023-12-26T04:50:31.493Z,8.91
2023-12-26T04:53:05.983Z,9.02
2023-12-26T04:55:37.778Z,8.84
2023-12-26T04:58:12.496Z,8.76
2023-12-26T05:00:45.191Z,8.84
2023-12-26T05:03:17.377Z,8.83
2023-12-26T05:05:49.462Z,8.68
2023-12-26T05:08:22.101Z,8.89
2023-12-26T05:10:54.160Z,8.85
2023-12-26T05:13:28.884Z,8.94
2023-12-26T05:16:00.616Z,9.11
2023-12-26T05:18:33.683Z,8.66
2023-12-26T05:21:05.591Z,8.79
2023-12-26T05:23:38.062Z,9.18
2023-12-26T05:26:13.473Z,9.14
2023-12-26T05:28:49.340Z,9.26
2023-12-26T05:31:24.025Z,9.08
2023-12-26T05:33:56.764Z,8.88
2023-12-26T05:36:28.967Z,9.02
2023-12-26T05:39:01.809Z,8.91
2023-12-26T05:41:33.884Z,9.10
2023-12-26T05:44:09.472Z,9.15
2023-12-26T05:46:41.631Z,8.91
2023-12-26T05:49:14.277Z,9.21
2023-12-26T05:51:46.677Z,8.97
2023-12-26T05:54:19.164Z,8.93
2023-12-26T05:56:51.222Z,8.95
2023-12-26T05:59:28.992Z,9.12
2023-12-26T06:02:01.188Z,9.01
2023-12-26T06:04:35.064Z,8.83
2023-12-26T06:07:08.803Z,9.09
2023-12-26T06:09:43.358Z,9.09
2023-12-26T06:12:17.082Z,8.88
2023-12-26T06:14:52.319Z,8.76
2023-12-26T06:17:24.499Z,8.90
2023-12-26T06:19:57.253Z,9.11
2023-12-26T06:22:29.501Z,9.05
2023-12-26T06:25:01.796Z,8.74
2023-12-26T06:27:34.109Z,8.70
2023-12-26T06:30:12.362Z,8.77
2023-12-26T06:32:44.701Z,8.59
2023-12-26T06:35:17.743Z,8.77
2023-12-26T06:37:49.749Z,8.77
2023-12-26T06:40:22.192Z,8.73
2023-12-26T06:42:54.435Z,8.84
2023-12-26T06:45:29.851Z,8.92
2023-12-26T06:48:01.935Z,8.84
2023-12-26T06:50:34.676Z,8.61
2023-12-26T06:53:07.339Z,8.66
2023-12-26T06:55:40.463Z,8.89
2023-12-26T06:58:12.630Z,8.84
2023-12-26T07:00:47.864Z,8.63
2023-12-26T07:03:21.817Z,8.87
2023-12-26T07:05:54.237Z,8.62
2023-12-26T07:08:26.274Z,8.70
2023-12-26T07:10:58.690Z,8.51
2023-12-26T07:13:30.731Z,8.51
2023-12-26T07:16:06.941Z,8.26
2023-12-26T07:18:39.903Z,8.28
2023-12-26T07:21:10.551Z,8.44
2023-12-26T07:23:44.107Z,8.38
2023-12-26T07:26:17.072Z,8.36
2023-12-26T07:28:51.547Z,8.32
2023-12-26T07:31:27.292Z,8.38
2023-12-26T07:34:03.076Z,8.22
2023-12-26T07:36:39.688Z,8.38
2023-12-26T07:39:12.680Z,8.59
2023-12-26T07:41:45.632Z,8.26
2023-12-26T07:44:17.517Z,8.39
2023-12-26T07:46:52.161Z,8.40
2023-12-26T07:49:24.190Z,8.38
2023-12-26T07:51:56.472Z,8.48
2023-12-26T07:54:28.942Z,8.43
2023-12-26T07:57:01.322Z,8.43
2023-12-26T07:59:33.325Z,8.49
2023-12-26T08:02:07.983Z,8.73
2023-12-26T08:04:39.745Z,8.47
2023-12-26T08:07:12.703Z,8.46
2023-12-26T08:09:44.366Z,8.63
2023-12-26T08:12:17.158Z,8.61
2023-12-26T08:14:48.817Z,8.56
2023-12-26T08:17:23.738Z,8.52
2023-12-26T08:19:55.196Z,8.47
2023-12-26T08:22:27.122Z,8.59
2023-12-26T08:24:58.606Z,8.50
2023-12-26T08:27:30.501Z,8.72
2023-12-26T08:30:02.101Z,8.57
2023-12-26T08:32:40.855Z,8.82
2023-12-26T08:35:13.205Z,8.87
2023-12-26T08:37:47.166Z,8.97
2023-12-26T08:40:20.701Z,8.73
2023-12-26T08:42:55.617Z,8.67
2023-12-26T08:45:28.329Z,8.75
2023-12-26T08:48:06.257Z,8.61
2023-12-26T08:50:38.269Z,8.69
2023-12-26T08:53:10.241Z,8.65
2023-12-26T08:55:43.477Z,8.71
2023-12-26T08:58:22.188Z,8.68
2023-12-26T09:00:54.579Z,8.73
2023-12-26T09:03:36.724Z,8.56
2023-12-26T09:06:09.553Z,8.54
2023-12-26T09:08:42.809Z,8.60
2023-12-26T09:11:14.619Z,8.57
2023-12-26T09:13:47.425Z,8.60
2023-12-26T09:16:19.260Z,8.58
2023-12-26T09:19:13.772Z,8.62
2023-12-26T09:21:45.434Z,8.73
2023-12-26T09:24:18.715Z,8.75
2023-12-26T09:26:50.787Z,8.63
2023-12-26T09:29:23.384Z,8.70
2023-12-26T09:31:58.732Z,8.56
2023-12-26T09:34:39.633Z,8.57
2023-12-26T09:37:11.984Z,8.40
2023-12-26T09:39:44.408Z,8.57
2023-12-26T09:42:19.025Z,8.56
2023-12-26T09:44:53.922Z,8.67
2023-12-26T09:47:27.769Z,8.49
2023-12-26T09:50:03.194Z,8.57
2023-12-26T09:52:37.440Z,8.60
2023-12-26T09:55:11.652Z,8.67
2023-12-26T09:57:45.481Z,8.69
2023-12-26T10:00:18.057Z,8.52
2023-12-26T10:02:51.137Z,8.71
2023-12-26T10:05:26.595Z,8.71
2023-12-26T10:07:58.584Z,8.75
2023-12-26T10:10:30.646Z,8.64
2023-12-26T10:13:02.851Z,8.71
2023-12-26T10:15:35.169Z,8.93
2023-12-26T10:18:15.084Z,8.84
2023-12-26T10:20:50.046Z,8.85
2023-12-26T10:23:22.740Z,9.20
2023-12-26T10:25:55.217Z,8.95
2023-12-26T10:28:27.637Z,8.96
2023-12-26T10:30:59.954Z,9.03
2023-12-26T10:33:32.020Z,8.79
2023-12-26T10:36:12.324Z,8.84
2023-12-26T10:38:50.480Z,8.86
2023-12-26T10:41:29.481Z,8.76
2023-12-26T10:44:04.408Z,8.60
2023-12-26T10:46:37.592Z,8.71
2023-12-26T10:49:13.798Z,8.87
2023-12-26T10:51:48.788Z,8.73
2023-12-26T10:54:26.397Z,8.67
2023-12-26T10:57:02.383Z,8.69
2023-12-26T11:00:16.560Z,8.80
2023-12-26T11:03:30.559Z,8.73
2023-12-26T11:06:44.421Z,8.95
2023-12-26T11:09:58.350Z,9.33
2023-12-26T11:13:12.132Z,8.81
2023-12-26T11:16:26.026Z,8.77
2023-12-26T11:19:39.755Z,8.95
2023-12-26T11:22:54.346Z,8.74
2023-12-26T11:26:08.022Z,8.81
2023-12-26T11:29:21.850Z,9.04
2023-12-26T11:32:35.614Z,8.94
2023-12-26T11:35:49.597Z,8.81
2023-12-26T11:39:03.289Z,8.86
2023-12-26T11:42:17.492Z,8.71
2023-12-26T11:45:31.213Z,9.18
2023-12-26T11:48:49.221Z,8.82
2023-12-26T11:52:03.496Z,8.83
2023-12-26T11:55:17.810Z,8.66
2023-12-26T11:58:31.788Z,8.79
2023-12-26T12:01:46.128Z,8.68
2023-12-26T12:05:02.936Z,8.91
2023-12-26T12:08:20.461Z,8.69
2023-12-26T12:11:34.563Z,9.00
2023-12-26T12:14:48.814Z,8.95
2023-12-26T12:18:03.048Z,8.83
2023-12-26T12:21:17.483Z,8.73
2023-12-26T12:24:31.540Z,8.84
2023-12-26T12:27:49.886Z,8.86
2023-12-26T12:31:04.077Z,9.09
2023-12-26T12:34:18.433Z,9.19
2023-12-26T12:37:32.465Z,9.09
2023-12-26T12:40:46.754Z,8.94
2023-12-26T12:44:01.864Z,9.25
2023-12-26T12:47:18.690Z,8.93
2023-12-26T12:50:32.802Z,9.03
2023-12-26T12:53:47.257Z,9.04
2023-12-26T12:57:01.231Z,9.29
2023-12-26T13:00:16.176Z,9.04
2023-12-26T13:03:32.301Z,8.97
2023-12-26T13:06:48.262Z,9.08
2023-12-26T13:10:02.290Z,9.23
2023-12-26T13:13:38.912Z,9.49
2023-12-26T13:16:53.052Z,9.29
2023-12-26T13:20:07.440Z,9.40
2023-12-26T13:23:21.574Z,8.90
2023-12-26T13:26:36.927Z,9.20
2023-12-26T13:29:50.953Z,9.32
2023-12-26T13:33:05.588Z,9.23
2023-12-26T13:36:20.245Z,9.01
2023-12-26T13:39:34.605Z,9.52
2023-12-26T13:42:48.685Z,9.31
2023-12-26T13:46:03.430Z,9.37
2023-12-26T13:49:17.811Z,9.46
2023-12-26T13:52:22.590Z,9.51
2023-12-26T13:54:56.931Z,9.57
2023-12-26T13:57:58.765Z,9.46
2023-12-26T14:00:27.856Z,9.16
2023-12-26T14:03:30.810Z,9.56
2023-12-26T14:06:02.586Z,9.23
2023-12-26T14:09:07.574Z,9.65
2023-12-26T14:11:41.767Z,9.43
2023-12-26T14:14:43.320Z,9.40
2023-12-26T14:17:16.916Z,9.68
2023-12-26T14:20:18.538Z,9.61
2023-12-26T14:22:50.548Z,9.14
2023-12-26T14:25:52.193Z,9.19
2023-12-26T14:28:30.294Z,9.46
2023-12-26T14:31:33.540Z,9.34
2023-12-26T14:34:05.253Z,8.92
2023-12-26T14:37:06.930Z,9.44
2023-12-26T14:39:39.566Z,9.28
2023-12-26T14:42:41.234Z,9.35
2023-12-26T14:45:15.489Z,9.05
2023-12-26T14:48:17.453Z,9.61
2023-12-26T14:50:48.962Z,9.79
2023-12-26T14:53:52.394Z,9.31
2023-12-26T14:56:26.510Z,9.21
2023-12-26T14:59:28.046Z,9.50
2023-12-26T15:02:08.155Z,8.62
2023-12-26T15:04:40.280Z,8.39
2023-12-26T15:07:14.143Z,8.99
2023-12-26T15:09:46.271Z,8.75
2023-12-26T15:12:19.140Z,8.90
2023-12-26T15:14:52.935Z,8.50
2023-12-26T15:17:30.118Z,8.53
2023-12-26T15:20:08.342Z,8.78
2023-12-26T15:22:42.190Z,8.49
2023-12-26T15:25:14.464Z,8.41
2023-12-26T15:27:52.468Z,8.61
2023-12-26T15:30:27.634Z,8.67
2023-12-26T15:33:08.123Z,8.31
2023-12-26T15:35:42.554Z,8.05
2023-12-26T15:38:16.474Z,7.97
2023-12-26T15:40:56.253Z,7.94
2023-12-26T15:43:34.966Z,7.99
2023-12-26T15:46:09.875Z,8.02
2023-12-26T15:48:46.523Z,7.90
2023-12-26T15:51:22.619Z,7.85
2023-12-26T15:53:57.181Z,7.89
2023-12-26T15:56:29.778Z,7.77
2023-12-26T15:59:02.491Z,7.95
2023-12-26T16:01:34.764Z,8.21
2023-12-26T16:04:09.363Z,8.13
2023-12-26T16:06:42.068Z,8.26
2023-12-26T16:09:14.615Z,8.58
2023-12-26T16:11:47.668Z,7.84
2023-12-26T16:14:21.428Z,7.92
2023-12-26T16:16:53.851Z,8.06
2023-12-26T16:19:28.619Z,8.14
2023-12-26T16:22:01.173Z,8.07
2023-12-26T16:24:36.909Z,8.24
2023-12-26T16:27:10.380Z,8.16
2023-12-26T16:29:42.575Z,8.11
2023-12-26T16:32:15.968Z,8.08
2023-12-26T16:34:50.788Z,8.13
2023-12-26T16:37:26.133Z,8.16
2023-12-26T16:39:58.364Z,8.23
2023-12-26T16:42:31.927Z,8.37
2023-12-26T16:45:04.218Z,8.19
2023-12-26T16:47:36.785Z,8.32
2023-12-26T16:50:12.610Z,8.36
2023-12-26T16:52:44.968Z,8.55
2023-12-26T16:55:17.192Z,8.71
2023-12-26T16:57:49.709Z,8.54
2023-12-26T17:00:22.781Z,8.68
2023-12-26T17:02:55.335Z,8.23
2023-12-26T17:05:30.322Z,8.29
2023-12-26T17:08:03.065Z,8.30
2023-12-26T17:10:35.329Z,8.46
2023-12-26T17:13:08.186Z,8.28
2023-12-26T17:15:40.330Z,8.54
2023-12-26T17:18:12.883Z,8.23
2023-12-26T17:20:47.711Z,8.01
2023-12-26T17:23:17.470Z,8.24
2023-12-26T17:25:49.780Z,8.10
2023-12-26T17:28:22.307Z,8.24
2023-12-26T17:30:54.514Z,8.31
2023-12-26T17:33:27.198Z,8.30
2023-12-26T17:36:05.802Z,8.32
2023-12-26T17:38:38.551Z,8.30
2023-12-26T17:41:10.840Z,8.29
2023-12-26T17:43:43.389Z,8.17
2023-12-26T17:46:16.797Z,8.14
2023-12-26T17:48:49.404Z,8.54
2023-12-26T17:51:34.931Z,8.24
2023-12-26T17:54:10.429Z,8.10
2023-12-26T17:56:43.089Z,8.06
2023-12-26T17:59:15.666Z,8.27
2023-12-26T18:01:47.860Z,8.23
2023-12-26T18:04:20.394Z,8.35
2023-12-26T18:06:55.269Z,8.11
2023-12-26T18:09:27.874Z,8.39
2023-12-26T18:12:00.247Z,8.08
2023-12-26T18:14:32.821Z,8.13
2023-12-26T18:17:05.207Z,8.46
2023-12-26T18:19:37.972Z,8.08
2023-12-26T18:22:12.960Z,8.19
2023-12-26T18:24:46.848Z,7.99
2023-12-26T18:27:23.034Z,8.00
2023-12-26T18:29:55.771Z,7.57
2023-12-26T18:32:28.258Z,7.35
2023-12-26T18:35:00.910Z,7.11
2023-12-26T18:37:35.871Z,6.98
2023-12-26T18:40:11.160Z,6.67
2023-12-26T18:42:43.473Z,6.64
2023-12-26T18:45:16.412Z,6.65
2023-12-26T18:47:51.308Z,6.19
2023-12-26T18:50:27.473Z,6.12
2023-12-26T18:53:02.240Z,5.80
2023-12-26T18:55:38.635Z,5.65
2023-12-26T18:58:13.797Z,5.70
2023-12-26T19:00:50.608Z,5.75
2023-12-26T19:03:25.682Z,5.56
2023-12-26T19:06:02.528Z,5.55
2023-12-26T19:08:59.269Z,5.57
2023-12-26T19:11:33.008Z,5.76
2023-12-26T19:14:05.187Z,5.52
2023-12-26T19:16:37.554Z,5.50
2023-12-26T19:19:10.131Z,5.33
2023-12-26T19:21:42.732Z,5.38
2023-12-26T19:24:17.447Z,5.40
2023-12-26T19:26:52.385Z,5.41
2023-12-26T19:29:24.608Z,5.59
2023-12-26T19:31:56.857Z,5.56
2023-12-26T19:34:29.378Z,5.48
2023-12-26T19:37:01.962Z,5.83
2023-12-26T19:39:36.772Z,5.62
2023-12-26T19:42:09.341Z,5.64
2023-12-26T19:44:41.509Z,5.65
2023-12-26T19:47:13.966Z,5.44
2023-12-26T19:49:46.351Z,5.70
2023-12-26T19:52:22.353Z,5.66
2023-12-26T19:54:57.338Z,5.72
2023-12-26T19:57:29.324Z,5.79
2023-12-26T20:00:01.318Z,5.72
2023-12-26T20:02:33.453Z,5.93
2023-12-26T20:05:05.516Z,5.86
2023-12-26T20:07:39.302Z,5.86
2023-12-26T20:10:18.837Z,5.80
2023-12-26T20:12:51.272Z,5.90
2023-12-26T20:15:24.863Z,5.98
2023-12-26T20:17:57.554Z,5.93
2023-12-26T20:20:30.028Z,5.85
2023-12-26T20:23:04.646Z,6.18
2023-12-26T20:25:39.092Z,6.10
2023-12-26T20:28:11.548Z,6.13
2023-12-26T20:30:43.306Z,6.18
2023-12-26T20:33:15.966Z,5.97
2023-12-26T20:35:48.174Z,5.84
2023-12-26T20:38:23.036Z,5.65
2023-12-26T20:41:00.745Z,5.82
2023-12-26T20:43:33.221Z,5.70
2023-12-26T20:46:07.107Z,5.73
2023-12-26T20:48:39.969Z,5.81
2023-12-26T20:51:13.285Z,5.90
2023-12-26T20:53:46.873Z,5.58
2023-12-26T20:56:22.301Z,5.71
2023-12-26T20:58:54.724Z,5.73
2023-12-26T21:01:27.065Z,5.36
2023-12-26T21:03:59.712Z,5.46
2023-12-26T21:06:32.722Z,5.44
2023-12-26T21:09:05.687Z,5.40
2023-12-26T21:11:44.014Z,5.33
2023-12-26T21:14:21.848Z,5.47
2023-12-26T21:16:54.153Z,5.20
2023-12-26T21:19:27.127Z,5.12
2023-12-26T21:21:59.456Z,5.23
2023-12-26T21:24:33.075Z,5.29
2023-12-26T21:30:34.050Z,5.03
2023-12-26T21:33:10.928Z,5.00
2023-12-26T21:35:57.855Z,5.15
2023-12-26T21:38:29.900Z,4.97
2023-12-26T21:41:02.630Z,4.88
2023-12-26T21:43:37.568Z,5.00
2023-12-26T21:46:12.423Z,4.93
2023-12-26T21:48:45.899Z,4.77
2023-12-26T21:51:19.672Z,4.90
2023-12-26T21:53:52.023Z,4.90
2023-12-26T21:56:47.500Z,4.81
2023-12-26T21:59:22.689Z,4.84
2023-12-26T22:01:58.908Z,4.82
2023-12-26T22:04:31.153Z,4.81
2023-12-26T22:07:04.433Z,4.79
2023-12-26T22:09:36.534Z,4.87
2023-12-26T22:12:10.908Z,4.80
2023-12-26T22:14:49.067Z,4.70
2023-12-26T22:17:52.531Z,4.86
2023-12-26T22:20:44.700Z,4.75
2023-12-26T22:23:18.646Z,4.73
2023-12-26T22:25:55.064Z,4.90
2023-12-26T22:28:27.438Z,4.75
2023-12-26T22:31:04.105Z,4.67
2023-12-26T22:33:37.321Z,4.82
2023-12-26T22:36:13.112Z,4.80
2023-12-26T22:38:50.163Z,4.64
2023-12-26T22:41:24.427Z,4.80
2023-12-26T22:43:57.379Z,4.90
2023-12-26T22:46:35.109Z,4.63
2023-12-26T22:49:08.725Z,4.83
2023-12-26T22:51:42.600Z,4.74
2023-12-26T22:54:15.229Z,4.73
2023-12-26T22:56:49.081Z,4.73
2023-12-26T22:59:21.515Z,4.83
2023-12-26T23:01:56.888Z,4.68
2023-12-26T23:04:29.286Z,4.78
2023-12-26T23:07:02.287Z,4.82
2023-12-26T23:09:35.059Z,4.69
2023-12-26T23:12:08.402Z,4.72
2023-12-26T23:14:40.881Z,4.99
2023-12-26T23:17:16.351Z,4.94
2023-12-26T23:19:50.076Z,4.76
2023-12-26T23:22:23.025Z,4.89
2023-12-26T23:24:55.437Z,5.01
2023-12-26T23:27:28.123Z,5.02
2023-12-26T23:30:00.489Z,4.97
2023-12-26T23:32:36.239Z,4.86
2023-12-26T23:35:09.229Z,4.99
2023-12-26T23:37:42.569Z,4.82
2023-12-26T23:40:16.206Z,4.91
2023-12-26T23:42:48.886Z,4.84
2023-12-26T23:45:21.448Z,4.80
2023-12-26T23:47:57.680Z,4.84
2023-12-26T23:50:30.898Z,4.83
2023-12-26T23:53:05.792Z,4.86
2023-12-26T23:55:39.576Z,4.83
2023-12-26T23:58:13.290Z,4.61
